sensor_id;sensor_type;location;lat;lon;timestamp;P1;durP1;ratioP1;P2;durP2;ratioP2
49450;SDS011;35336;48.400;10.886;2023-08-06T00:00:12;4.57;;;2.00;;
49450;SDS011;35336;48.400;10.886;2023-08-06T00:00:27;3.27;;;2.00;;
49450;SDS011;35336;48.400;10.886;2023-08-06T00:00:45;4.18;;;2.50;;
49450;SDS011;35336;48.400;10.886;2023-08-06T00:01:00;4.83;;;2.40;;
49450;SDS011;35336;48.400;10.886;2023-08-06T00:01:16;4.17;;;2.00;;
49450;SDS011;35336;48.400;10.886;2023-08-06T00:01:31;2.30;;;2.00;;
49450;SDS011;35336;48.400;10.886;2023-08-06T00:01:49;2.33;;;1.98;;
49450;SDS011;35336;48.400;10.886;2023-08-06T00:02:04;2.83;;;2.07;;
49450;SDS011;35336;48.400;10.886;2023-08-06T00:02:19;2.60;;;2.00;;
49450;SDS011;35336;48.400;10.886;2023-08-06T00:02:35;2.33;;;1.97;;
49450;SDS011;35336;48.400;10.886;2023-08-06T00:02:53;2.78;;;2.13;;
49450;SDS011;35336;48.400;10.886;2023-08-06T00:03:08;4.00;;;2.20;;
49450;SDS011;35336;48.400;10.886;2023-08-06T00:03:26;4.05;;;2.10;;
49450;SDS011;35336;48.400;10.886;2023-08-06T00:03:43;4.43;;;2.40;;
49450;SDS011;35336;48.400;10.886;2023-08-06T00:03:59;3.43;;;2.40;;
49450;SDS011;35336;48.400;10.886;2023-08-06T00:04:14;2.27;;;2.00;;
49450;SDS011;35336;48.400;10.886;2023-08-06T00:04:32;2.35;;;2.05;;
49450;SDS011;35336;48.400;10.886;2023-08-06T00:04:47;2.70;;;2.15;;
49450;SDS011;35336;48.400;10.886;2023-08-06T00:05:02;2.90;;;2.00;;
49450;SDS011;35336;48.400;10.886;2023-08-06T00:05:20;2.70;;;1.85;;
49450;SDS011;35336;48.400;10.886;2023-08-06T00:05:36;2.87;;;2.00;;
49450;SDS011;35336;48.400;10.886;2023-08-06T00:05:53;2.63;;;2.03;;
49450;SDS011;35336;48.400;10.886;2023-08-06T00:06:11;2.97;;;2.08;;
49450;SDS011;35336;48.400;10.886;2023-08-06T00:06:29;4.60;;;2.20;;
49450;SDS011;35336;48.400;10.886;2023-08-06T00:06:44;4.50;;;2.07;;
49450;SDS011;35336;48.400;10.886;2023-08-06T00:07:02;3.58;;;1.95;;
49450;SDS011;35336;48.400;10.886;2023-08-06T00:07:20;2.72;;;1.98;;
49450;SDS011;35336;48.400;10.886;2023-08-06T00:07:35;2.30;;;1.70;;
49450;SDS011;35336;48.400;10.886;2023-08-06T00:07:50;1.97;;;1.70;;
49450;SDS011;35336;48.400;10.886;2023-08-06T00:08:06;2.83;;;1.93;;
49450;SDS011;35336;48.400;10.886;2023-08-06T00:08:21;4.67;;;2.33;;
49450;SDS011;35336;48.400;10.886;2023-08-06T00:08:36;5.85;;;2.42;;
49450;SDS011;35336;48.400;10.886;2023-08-06T00:08:52;5.10;;;2.10;;
49450;SDS011;35336;48.400;10.886;2023-08-06T00:09:09;4.65;;;1.90;;
49450;SDS011;35336;48.400;10.886;2023-08-06T00:09:24;3.30;;;1.75;;
49450;SDS011;35336;48.400;10.886;2023-08-06T00:09:42;2.67;;;2.10;;
49450;SDS011;35336;48.400;10.886;2023-08-06T00:09:57;4.10;;;2.40;;
49450;SDS011;35336;48.400;10.886;2023-08-06T00:10:13;3.60;;;2.25;;
49450;SDS011;35336;48.400;10.886;2023-08-06T00:10:28;4.57;;;2.10;;
49450;SDS011;35336;48.400;10.886;2023-08-06T00:10:43;4.20;;;2.10;;
49450;SDS011;35336;48.400;10.886;2023-08-06T00:10:59;2.37;;;1.97;;
49450;SDS011;35336;48.400;10.886;2023-08-06T00:11:16;2.80;;;1.90;;
49450;SDS011;35336;48.400;10.886;2023-08-06T00:11:35;4.22;;;2.17;;
49450;SDS011;35336;48.400;10.886;2023-08-06T00:11:50;5.43;;;2.40;;
49450;SDS011;35336;48.400;10.886;2023-08-06T00:12:07;4.00;;;2.10;;
49450;SDS011;35336;48.400;10.886;2023-08-06T00:12:23;2.87;;;1.90;;
49450;SDS011;35336;48.400;10.886;2023-08-06T00:12:38;2.17;;;1.93;;
49450;SDS011;35336;48.400;10.886;2023-08-06T00:12:53;2.53;;;2.08;;
49450;SDS011;35336;48.400;10.886;2023-08-06T00:13:09;3.33;;;2.17;;
49450;SDS011;35336;48.400;10.886;2023-08-06T00:13:24;3.90;;;2.10;;
49450;SDS011;35336;48.400;10.886;2023-08-06T00:13:39;3.27;;;1.80;;
49450;SDS011;35336;48.400;10.886;2023-08-06T00:13:55;2.60;;;1.90;;
49450;SDS011;35336;48.400;10.886;2023-08-06T00:14:10;3.08;;;2.10;;
49450;SDS011;35336;48.400;10.886;2023-08-06T00:14:25;2.63;;;1.93;;
49450;SDS011;35336;48.400;10.886;2023-08-06T00:14:43;2.20;;;1.73;;
49450;SDS011;35336;48.400;10.886;2023-08-06T00:14:59;3.00;;;1.77;;
49450;SDS011;35336;48.400;10.886;2023-08-06T00:15:17;2.53;;;1.77;;
49450;SDS011;35336;48.400;10.886;2023-08-06T00:15:32;6.35;;;1.83;;
49450;SDS011;35336;48.400;10.886;2023-08-06T00:15:48;6.78;;;2.05;;
49450;SDS011;35336;48.400;10.886;2023-08-06T00:16:09;3.27;;;1.93;;
49450;SDS011;35336;48.400;10.886;2023-08-06T00:16:25;2.20;;;1.80;;
49450;SDS011;35336;48.400;10.886;2023-08-06T00:16:44;2.27;;;1.90;;
49450;SDS011;35336;48.400;10.886;2023-08-06T00:17:02;2.15;;;1.95;;
49450;SDS011;35336;48.400;10.886;2023-08-06T00:17:17;2.30;;;2.10;;
49450;SDS011;35336;48.400;10.886;2023-08-06T00:17:35;2.65;;;2.10;;
49450;SDS011;35336;48.400;10.886;2023-08-06T00:17:50;3.45;;;2.10;;
49450;SDS011;35336;48.400;10.886;2023-08-06T00:18:06;2.97;;;2.07;;
49450;SDS011;35336;48.400;10.886;2023-08-06T00:18:23;2.53;;;2.10;;
49450;SDS011;35336;48.400;10.886;2023-08-06T00:18:39;2.23;;;1.87;;
49450;SDS011;35336;48.400;10.886;2023-08-06T00:18:55;2.05;;;1.85;;
49450;SDS011;35336;48.400;10.886;2023-08-06T00:19:10;2.30;;;2.10;;
49450;SDS011;35336;48.400;10.886;2023-08-06T00:19:26;2.80;;;1.97;;
49450;SDS011;35336;48.400;10.886;2023-08-06T00:19:43;3.35;;;1.85;;
49450;SDS011;35336;48.400;10.886;2023-08-06T00:19:59;2.17;;;1.70;;
49450;SDS011;35336;48.400;10.886;2023-08-06T00:20:15;2.15;;;1.95;;
49450;SDS011;35336;48.400;10.886;2023-08-06T00:20:30;2.30;;;2.08;;
49450;SDS011;35336;48.400;10.886;2023-08-06T00:20:48;2.05;;;1.90;;
49450;SDS011;35336;48.400;10.886;2023-08-06T00:21:05;2.55;;;2.10;;
49450;SDS011;35336;48.400;10.886;2023-08-06T00:21:23;2.75;;;2.13;;
49450;SDS011;35336;48.400;10.886;2023-08-06T00:21:41;3.95;;;2.22;;
49450;SDS011;35336;48.400;10.886;2023-08-06T00:21:56;4.22;;;1.95;;
49450;SDS011;35336;48.400;10.886;2023-08-06T00:22:12;4.70;;;1.90;;
49450;SDS011;35336;48.400;10.886;2023-08-06T00:22:27;3.67;;;2.03;;
49450;SDS011;35336;48.400;10.886;2023-08-06T00:22:43;2.35;;;1.90;;
49450;SDS011;35336;48.400;10.886;2023-08-06T00:23:00;2.80;;;1.90;;
49450;SDS011;35336;48.400;10.886;2023-08-06T00:23:20;2.60;;;2.10;;
49450;SDS011;35336;48.400;10.886;2023-08-06T00:23:36;2.60;;;2.13;;
49450;SDS011;35336;48.400;10.886;2023-08-06T00:23:51;2.60;;;2.13;;
49450;SDS011;35336;48.400;10.886;2023-08-06T00:24:06;3.13;;;2.08;;
49450;SDS011;35336;48.400;10.886;2023-08-06T00:24:25;3.78;;;2.03;;
49450;SDS011;35336;48.400;10.886;2023-08-06T00:24:40;2.93;;;1.90;;
49450;SDS011;35336;48.400;10.886;2023-08-06T00:24:56;3.47;;;2.00;;
49450;SDS011;35336;48.400;10.886;2023-08-06T00:25:12;4.80;;;2.50;;
49450;SDS011;35336;48.400;10.886;2023-08-06T00:25:27;4.23;;;2.43;;
49450;SDS011;35336;48.400;10.886;2023-08-06T00:25:45;3.42;;;1.98;;
49450;SDS011;35336;48.400;10.886;2023-08-06T00:26:03;4.45;;;1.75;;
49450;SDS011;35336;48.400;10.886;2023-08-06T00:26:18;3.50;;;1.93;;
49450;SDS011;35336;48.400;10.886;2023-08-06T00:26:33;2.60;;;2.10;;
49450;SDS011;35336;48.400;10.886;2023-08-06T00:26:48;2.40;;;2.13;;
49450;SDS011;35336;48.400;10.886;2023-08-06T00:27:04;2.40;;;2.00;;
49450;SDS011;35336;48.400;10.886;2023-08-06T00:27:24;3.63;;;1.83;;
49450;SDS011;35336;48.400;10.886;2023-08-06T00:27:39;3.75;;;1.88;;
49450;SDS011;35336;48.400;10.886;2023-08-06T00:27:54;3.55;;;2.10;;
49450;SDS011;35336;48.400;10.886;2023-08-06T00:28:10;2.10;;;1.87;;
49450;SDS011;35336;48.400;10.886;2023-08-06T00:28:25;2.17;;;1.97;;
49450;SDS011;35336;48.400;10.886;2023-08-06T00:28:40;2.60;;;2.03;;
49450;SDS011;35336;48.400;10.886;2023-08-06T00:28:58;2.17;;;1.83;;
49450;SDS011;35336;48.400;10.886;2023-08-06T00:29:16;2.70;;;1.98;;
49450;SDS011;35336;48.400;10.886;2023-08-06T00:29:34;3.70;;;2.10;;
49450;SDS011;35336;48.400;10.886;2023-08-06T00:29:49;2.45;;;2.10;;
49450;SDS011;35336;48.400;10.886;2023-08-06T00:30:05;2.27;;;2.07;;
49450;SDS011;35336;48.400;10.886;2023-08-06T00:30:21;2.20;;;2.00;;
49450;SDS011;35336;48.400;10.886;2023-08-06T00:30:37;3.25;;;2.08;;
49450;SDS011;35336;48.400;10.886;2023-08-06T00:30:55;2.70;;;1.90;;
49450;SDS011;35336;48.400;10.886;2023-08-06T00:31:13;2.15;;;1.95;;
49450;SDS011;35336;48.400;10.886;2023-08-06T00:31:28;2.53;;;1.92;;
49450;SDS011;35336;48.400;10.886;2023-08-06T00:31:44;3.00;;;2.00;;
49450;SDS011;35336;48.400;10.886;2023-08-06T00:31:59;2.70;;;1.93;;
49450;SDS011;35336;48.400;10.886;2023-08-06T00:32:17;3.03;;;2.20;;
49450;SDS011;35336;48.400;10.886;2023-08-06T00:32:32;3.78;;;2.28;;
49450;SDS011;35336;48.400;10.886;2023-08-06T00:32:50;3.03;;;2.13;;
49450;SDS011;35336;48.400;10.886;2023-08-06T00:33:07;2.58;;;2.38;;
49450;SDS011;35336;48.400;10.886;2023-08-06T00:33:23;2.50;;;2.20;;
49450;SDS011;35336;48.400;10.886;2023-08-06T00:33:39;2.45;;;1.85;;
49450;SDS011;35336;48.400;10.886;2023-08-06T00:33:54;2.33;;;1.93;;
49450;SDS011;35336;48.400;10.886;2023-08-06T00:34:10;3.63;;;2.03;;
49450;SDS011;35336;48.400;10.886;2023-08-06T00:34:25;5.77;;;1.93;;
49450;SDS011;35336;48.400;10.886;2023-08-06T00:34:41;4.50;;;2.00;;
49450;SDS011;35336;48.400;10.886;2023-08-06T00:34:56;2.67;;;1.93;;
49450;SDS011;35336;48.400;10.886;2023-08-06T00:35:11;2.80;;;1.80;;
49450;SDS011;35336;48.400;10.886;2023-08-06T00:35:27;3.13;;;2.03;;
49450;SDS011;35336;48.400;10.886;2023-08-06T00:35:42;3.90;;;1.97;;
49450;SDS011;35336;48.400;10.886;2023-08-06T00:36:01;4.78;;;1.90;;
49450;SDS011;35336;48.400;10.886;2023-08-06T00:36:18;5.07;;;2.05;;
49450;SDS011;35336;48.400;10.886;2023-08-06T00:36:34;3.50;;;1.90;;
49450;SDS011;35336;48.400;10.886;2023-08-06T00:36:51;4.22;;;2.10;;
49450;SDS011;35336;48.400;10.886;2023-08-06T00:37:09;5.20;;;2.27;;
49450;SDS011;35336;48.400;10.886;2023-08-06T00:37:26;2.22;;;1.83;;
49450;SDS011;35336;48.400;10.886;2023-08-06T00:37:43;2.40;;;1.80;;
49450;SDS011;35336;48.400;10.886;2023-08-06T00:37:59;1.90;;;1.70;;
49450;SDS011;35336;48.400;10.886;2023-08-06T00:38:14;2.30;;;1.80;;
49450;SDS011;35336;48.400;10.886;2023-08-06T00:38:30;3.65;;;2.22;;
49450;SDS011;35336;48.400;10.886;2023-08-06T00:38:45;5.90;;;2.23;;
49450;SDS011;35336;48.400;10.886;2023-08-06T00:39:02;5.60;;;2.00;;
49450;SDS011;35336;48.400;10.886;2023-08-06T00:39:18;3.58;;;2.30;;
49450;SDS011;35336;48.400;10.886;2023-08-06T00:39:33;2.73;;;2.23;;
49450;SDS011;35336;48.400;10.886;2023-08-06T00:39:48;2.30;;;1.80;;
49450;SDS011;35336;48.400;10.886;2023-08-06T00:40:07;2.30;;;1.80;;
49450;SDS011;35336;48.400;10.886;2023-08-06T00:40:22;1.90;;;1.80;;
49450;SDS011;35336;48.400;10.886;2023-08-06T00:40:38;2.03;;;1.83;;
49450;SDS011;35336;48.400;10.886;2023-08-06T00:40:53;2.77;;;1.87;;
49450;SDS011;35336;48.400;10.886;2023-08-06T00:41:08;2.83;;;2.03;;
49450;SDS011;35336;48.400;10.886;2023-08-06T00:41:28;2.85;;;2.30;;
49450;SDS011;35336;48.400;10.886;2023-08-06T00:41:44;2.30;;;1.90;;
49450;SDS011;35336;48.400;10.886;2023-08-06T00:41:59;2.43;;;1.80;;
49450;SDS011;35336;48.400;10.886;2023-08-06T00:42:17;3.70;;;2.42;;
49450;SDS011;35336;48.400;10.886;2023-08-06T00:42:35;2.13;;;1.92;;
49450;SDS011;35336;48.400;10.886;2023-08-06T00:42:50;2.03;;;1.80;;
49450;SDS011;35336;48.400;10.886;2023-08-06T00:43:06;2.08;;;1.70;;
49450;SDS011;35336;48.400;10.886;2023-08-06T00:43:21;2.20;;;2.00;;
49450;SDS011;35336;48.400;10.886;2023-08-06T00:43:37;3.05;;;2.20;;
49450;SDS011;35336;48.400;10.886;2023-08-06T00:43:52;5.10;;;2.00;;
49450;SDS011;35336;48.400;10.886;2023-08-06T00:44:07;4.63;;;1.90;;
49450;SDS011;35336;48.400;10.886;2023-08-06T00:44:25;3.50;;;2.20;;
49450;SDS011;35336;48.400;10.886;2023-08-06T00:44:41;3.53;;;2.20;;
49450;SDS011;35336;48.400;10.886;2023-08-06T00:44:56;2.33;;;2.03;;
49450;SDS011;35336;48.400;10.886;2023-08-06T00:45:16;3.58;;;2.15;;
49450;SDS011;35336;48.400;10.886;2023-08-06T00:45:35;3.85;;;2.10;;
49450;SDS011;35336;48.400;10.886;2023-08-06T00:45:53;2.08;;;1.80;;
49450;SDS011;35336;48.400;10.886;2023-08-06T00:46:08;2.20;;;2.00;;
49450;SDS011;35336;48.400;10.886;2023-08-06T00:46:24;2.30;;;1.98;;
49450;SDS011;35336;48.400;10.886;2023-08-06T00:46:41;3.17;;;2.00;;
49450;SDS011;35336;48.400;10.886;2023-08-06T00:46:56;3.07;;;2.00;;
49450;SDS011;35336;48.400;10.886;2023-08-06T00:47:14;2.30;;;1.88;;
49450;SDS011;35336;48.400;10.886;2023-08-06T00:47:30;2.30;;;1.75;;
49450;SDS011;35336;48.400;10.886;2023-08-06T00:47:46;2.13;;;1.70;;
49450;SDS011;35336;48.400;10.886;2023-08-06T00:48:02;2.13;;;1.92;;
49450;SDS011;35336;48.400;10.886;2023-08-06T00:48:19;2.35;;;2.13;;
49450;SDS011;35336;48.400;10.886;2023-08-06T00:48:37;3.50;;;2.17;;
49450;SDS011;35336;48.400;10.886;2023-08-06T00:48:54;3.50;;;2.30;;
49450;SDS011;35336;48.400;10.886;2023-08-06T00:49:10;2.30;;;2.10;;
49450;SDS011;35336;48.400;10.886;2023-08-06T00:49:26;2.35;;;2.10;;
49450;SDS011;35336;48.400;10.886;2023-08-06T00:49:41;2.47;;;2.20;;
49450;SDS011;35336;48.400;10.886;2023-08-06T00:49:59;2.63;;;2.30;;
49450;SDS011;35336;48.400;10.886;2023-08-06T00:50:16;2.83;;;2.23;;
49450;SDS011;35336;48.400;10.886;2023-08-06T00:50:31;4.77;;;2.37;;
49450;SDS011;35336;48.400;10.886;2023-08-06T00:50:47;4.72;;;2.60;;
49450;SDS011;35336;48.400;10.886;2023-08-06T00:51:04;2.53;;;2.20;;
49450;SDS011;35336;48.400;10.886;2023-08-06T00:51:20;2.83;;;2.13;;
49450;SDS011;35336;48.400;10.886;2023-08-06T00:51:35;2.57;;;2.23;;
49450;SDS011;35336;48.400;10.886;2023-08-06T00:51:53;2.58;;;2.00;;
49450;SDS011;35336;48.400;10.886;2023-08-06T00:52:08;4.37;;;2.13;;
49450;SDS011;35336;48.400;10.886;2023-08-06T00:52:24;4.47;;;2.33;;
49450;SDS011;35336;48.400;10.886;2023-08-06T00:52:42;2.70;;;2.10;;
49450;SDS011;35336;48.400;10.886;2023-08-06T00:53:00;2.75;;;2.38;;
49450;SDS011;35336;48.400;10.886;2023-08-06T00:53:16;2.80;;;2.50;;
49450;SDS011;35336;48.400;10.886;2023-08-06T00:53:33;3.10;;;2.27;;
49450;SDS011;35336;48.400;10.886;2023-08-06T00:53:51;3.45;;;2.30;;
49450;SDS011;35336;48.400;10.886;2023-08-06T00:54:08;2.58;;;2.20;;
49450;SDS011;35336;48.400;10.886;2023-08-06T00:54:24;3.38;;;2.20;;
49450;SDS011;35336;48.400;10.886;2023-08-06T00:54:42;4.70;;;2.15;;
49450;SDS011;35336;48.400;10.886;2023-08-06T00:54:58;5.20;;;2.08;;
49450;SDS011;35336;48.400;10.886;2023-08-06T00:55:13;3.60;;;2.23;;
49450;SDS011;35336;48.400;10.886;2023-08-06T00:55:28;5.10;;;2.27;;
49450;SDS011;35336;48.400;10.886;2023-08-06T00:55:44;4.35;;;2.15;;
49450;SDS011;35336;48.400;10.886;2023-08-06T00:55:59;2.60;;;2.40;;
49450;SDS011;35336;48.400;10.886;2023-08-06T00:56:15;3.05;;;2.47;;
49450;SDS011;35336;48.400;10.886;2023-08-06T00:56:33;3.05;;;2.20;;
49450;SDS011;35336;48.400;10.886;2023-08-06T00:56:51;4.15;;;2.10;;
49450;SDS011;35336;48.400;10.886;2023-08-06T00:57:08;3.33;;;2.03;;
49450;SDS011;35336;48.400;10.886;2023-08-06T00:57:24;2.28;;;2.08;;
49450;SDS011;35336;48.400;10.886;2023-08-06T00:57:40;2.55;;;2.15;;
49450;SDS011;35336;48.400;10.886;2023-08-06T00:57:58;3.13;;;2.35;;
49450;SDS011;35336;48.400;10.886;2023-08-06T00:58:16;2.80;;;2.30;;
49450;SDS011;35336;48.400;10.886;2023-08-06T00:58:31;2.60;;;2.40;;
49450;SDS011;35336;48.400;10.886;2023-08-06T00:58:47;2.58;;;2.15;;
49450;SDS011;35336;48.400;10.886;2023-08-06T00:59:08;3.75;;;2.30;;
49450;SDS011;35336;48.400;10.886;2023-08-06T00:59:25;3.35;;;2.55;;
49450;SDS011;35336;48.400;10.886;2023-08-06T00:59:41;3.00;;;2.55;;
49450;SDS011;35336;48.400;10.886;2023-08-06T00:59:56;5.33;;;2.53;;
49450;SDS011;35336;48.400;10.886;2023-08-06T01:00:14;4.75;;;2.35;;
49450;SDS011;35336;48.400;10.886;2023-08-06T01:00:29;3.10;;;2.27;;
49450;SDS011;35336;48.400;10.886;2023-08-06T01:00:47;2.42;;;2.08;;
49450;SDS011;35336;48.400;10.886;2023-08-06T01:01:05;2.25;;;2.05;;
49450;SDS011;35336;48.400;10.886;2023-08-06T01:01:23;2.78;;;2.28;;
49450;SDS011;35336;48.400;10.886;2023-08-06T01:01:38;2.93;;;2.37;;
49450;SDS011;35336;48.400;10.886;2023-08-06T01:01:53;2.60;;;2.40;;
49450;SDS011;35336;48.400;10.886;2023-08-06T01:02:09;2.47;;;2.28;;
49450;SDS011;35336;48.400;10.886;2023-08-06T01:02:26;2.40;;;2.20;;
49450;SDS011;35336;48.400;10.886;2023-08-06T01:02:42;2.80;;;2.42;;
49450;SDS011;35336;48.400;10.886;2023-08-06T01:02:57;3.70;;;2.17;;
49450;SDS011;35336;48.400;10.886;2023-08-06T01:03:12;4.27;;;2.07;;
49450;SDS011;35336;48.400;10.886;2023-08-06T01:03:28;4.30;;;2.30;;
49450;SDS011;35336;48.400;10.886;2023-08-06T01:03:43;5.63;;;2.50;;
49450;SDS011;35336;48.400;10.886;2023-08-06T01:04:01;4.13;;;2.30;;
49450;SDS011;35336;48.400;10.886;2023-08-06T01:04:17;2.58;;;2.13;;
49450;SDS011;35336;48.400;10.886;2023-08-06T01:04:33;3.85;;;2.40;;
49450;SDS011;35336;48.400;10.886;2023-08-06T01:04:48;4.73;;;2.50;;
49450;SDS011;35336;48.400;10.886;2023-08-06T01:05:04;4.60;;;2.57;;
49450;SDS011;35336;48.400;10.886;2023-08-06T01:05:20;3.70;;;2.60;;
49450;SDS011;35336;48.400;10.886;2023-08-06T01:05:39;2.70;;;2.40;;
49450;SDS011;35336;48.400;10.886;2023-08-06T01:05:54;2.90;;;2.40;;
49450;SDS011;35336;48.400;10.886;2023-08-06T01:06:10;3.35;;;2.58;;
49450;SDS011;35336;48.400;10.886;2023-08-06T01:06:47;3.07;;;2.37;;
49450;SDS011;35336;48.400;10.886;2023-08-06T01:10:31;3.13;;;2.72;;
49450;SDS011;35336;48.400;10.886;2023-08-06T01:10:53;2.78;;;2.50;;
49450;SDS011;35336;48.400;10.886;2023-08-06T01:11:44;3.47;;;2.38;;
49450;SDS011;35336;48.400;10.886;2023-08-06T01:12:29;3.05;;;2.40;;
49450;SDS011;35336;48.400;10.886;2023-08-06T01:13:08;3.60;;;2.60;;
49450;SDS011;35336;48.400;10.886;2023-08-06T01:13:54;3.97;;;2.50;;
49450;SDS011;35336;48.400;10.886;2023-08-06T01:14:30;4.20;;;2.53;;
49450;SDS011;35336;48.400;10.886;2023-08-06T01:15:41;2.88;;;2.20;;
49450;SDS011;35336;48.400;10.886;2023-08-06T01:16:01;2.83;;;2.42;;
49450;SDS011;35336;48.400;10.886;2023-08-06T01:16:20;4.55;;;2.30;;
49450;SDS011;35336;48.400;10.886;2023-08-06T01:16:36;2.92;;;2.20;;
49450;SDS011;35336;48.400;10.886;2023-08-06T01:16:54;2.75;;;2.30;;
49450;SDS011;35336;48.400;10.886;2023-08-06T01:17:13;3.05;;;2.30;;
49450;SDS011;35336;48.400;10.886;2023-08-06T01:17:29;4.00;;;2.30;;
49450;SDS011;35336;48.400;10.886;2023-08-06T01:17:47;4.47;;;2.33;;
49450;SDS011;35336;48.400;10.886;2023-08-06T01:18:03;3.22;;;2.25;;
49450;SDS011;35336;48.400;10.886;2023-08-06T01:18:19;2.58;;;2.20;;
49450;SDS011;35336;48.400;10.886;2023-08-06T01:18:38;2.67;;;2.20;;
49450;SDS011;35336;48.400;10.886;2023-08-06T01:18:53;3.33;;;2.17;;
49450;SDS011;35336;48.400;10.886;2023-08-06T01:19:17;3.40;;;2.47;;
49450;SDS011;35336;48.400;10.886;2023-08-06T01:19:33;3.55;;;2.50;;
49450;SDS011;35336;48.400;10.886;2023-08-06T01:19:51;3.77;;;2.43;;
49450;SDS011;35336;48.400;10.886;2023-08-06T01:20:06;2.50;;;2.22;;
49450;SDS011;35336;48.400;10.886;2023-08-06T01:20:22;2.93;;;2.20;;
49450;SDS011;35336;48.400;10.886;2023-08-06T01:20:37;2.95;;;2.15;;
49450;SDS011;35336;48.400;10.886;2023-08-06T01:20:55;2.60;;;2.22;;
49450;SDS011;35336;48.400;10.886;2023-08-06T01:21:13;2.65;;;2.40;;
49450;SDS011;35336;48.400;10.886;2023-08-06T01:21:28;3.00;;;2.60;;
49450;SDS011;35336;48.400;10.886;2023-08-06T01:21:43;3.37;;;2.77;;
49450;SDS011;35336;48.400;10.886;2023-08-06T01:21:59;3.60;;;3.30;;
49450;SDS011;35336;48.400;10.886;2023-08-06T01:22:14;7.45;;;6.57;;
49450;SDS011;35336;48.400;10.886;2023-08-06T01:22:29;13.93;;;10.50;;
49450;SDS011;35336;48.400;10.886;2023-08-06T01:22:47;18.57;;;14.00;;
49450;SDS011;35336;48.400;10.886;2023-08-06T01:23:05;18.88;;;14.25;;
49450;SDS011;35336;48.400;10.886;2023-08-06T01:23:20;19.83;;;11.00;;
49450;SDS011;35336;48.400;10.886;2023-08-06T01:23:36;19.92;;;11.45;;
49450;SDS011;35336;48.400;10.886;2023-08-06T01:23:51;18.73;;;14.80;;
49450;SDS011;35336;48.400;10.886;2023-08-06T01:24:07;20.80;;;16.73;;
49450;SDS011;35336;48.400;10.886;2023-08-06T01:24:23;21.25;;;16.50;;
49450;SDS011;35336;48.400;10.886;2023-08-06T01:24:38;26.02;;;20.17;;
49450;SDS011;35336;48.400;10.886;2023-08-06T01:24:57;24.05;;;18.58;;
49450;SDS011;35336;48.400;10.886;2023-08-06T01:25:13;17.30;;;12.85;;
49450;SDS011;35336;48.400;10.886;2023-08-06T01:25:35;15.23;;;11.00;;
49450;SDS011;35336;48.400;10.886;2023-08-06T01:26:45;5.03;;;4.00;;
49450;SDS011;35336;48.400;10.886;2023-08-06T01:27:11;3.42;;;2.58;;
49450;SDS011;35336;48.400;10.886;2023-08-06T01:27:49;4.50;;;2.45;;
49450;SDS011;35336;48.400;10.886;2023-08-06T01:28:08;3.92;;;2.40;;
49450;SDS011;35336;48.400;10.886;2023-08-06T01:28:56;2.83;;;2.35;;
49450;SDS011;35336;48.400;10.886;2023-08-06T01:29:15;3.35;;;2.20;;
49450;SDS011;35336;48.400;10.886;2023-08-06T01:30:35;3.78;;;2.20;;
49450;SDS011;35336;48.400;10.886;2023-08-06T01:30:54;4.30;;;2.20;;
49450;SDS011;35336;48.400;10.886;2023-08-06T01:31:48;3.50;;;2.25;;
49450;SDS011;35336;48.400;10.886;2023-08-06T01:31:58;3.10;;;2.30;;
49450;SDS011;35336;48.400;10.886;2023-08-06T01:32:16;6.30;;;2.22;;
49450;SDS011;35336;48.400;10.886;2023-08-06T01:32:35;5.15;;;2.10;;
49450;SDS011;35336;48.400;10.886;2023-08-06T01:32:56;2.50;;;2.30;;
49450;SDS011;35336;48.400;10.886;2023-08-06T01:33:16;3.53;;;2.10;;
49450;SDS011;35336;48.400;10.886;2023-08-06T01:33:38;4.55;;;2.72;;
49450;SDS011;35336;48.400;10.886;2023-08-06T01:34:00;2.75;;;2.30;;
49450;SDS011;35336;48.400;10.886;2023-08-06T01:34:21;4.80;;;2.47;;
49450;SDS011;35336;48.400;10.886;2023-08-06T01:34:38;5.38;;;2.20;;
49450;SDS011;35336;48.400;10.886;2023-08-06T01:34:55;2.63;;;2.20;;
49450;SDS011;35336;48.400;10.886;2023-08-06T01:35:13;2.97;;;2.10;;
49450;SDS011;35336;48.400;10.886;2023-08-06T01:35:30;3.95;;;2.20;;
49450;SDS011;35336;48.400;10.886;2023-08-06T01:35:49;4.15;;;2.20;;
49450;SDS011;35336;48.400;10.886;2023-08-06T01:36:06;4.72;;;2.30;;
49450;SDS011;35336;48.400;10.886;2023-08-06T01:36:24;4.40;;;2.30;;
49450;SDS011;35336;48.400;10.886;2023-08-06T01:36:44;2.55;;;2.30;;
49450;SDS011;35336;48.400;10.886;2023-08-06T01:37:00;2.47;;;2.10;;
49450;SDS011;35336;48.400;10.886;2023-08-06T01:37:18;2.40;;;1.83;;
49450;SDS011;35336;48.400;10.886;2023-08-06T01:37:34;3.90;;;1.90;;
49450;SDS011;35336;48.400;10.886;2023-08-06T01:37:49;4.00;;;2.00;;
49450;SDS011;35336;48.400;10.886;2023-08-06T01:38:05;2.40;;;2.20;;
49450;SDS011;35336;48.400;10.886;2023-08-06T01:38:20;2.50;;;2.20;;
49450;SDS011;35336;48.400;10.886;2023-08-06T01:38:38;3.50;;;2.22;;
49450;SDS011;35336;48.400;10.886;2023-08-06T01:38:54;3.33;;;2.03;;
49450;SDS011;35336;48.400;10.886;2023-08-06T01:39:09;2.55;;;1.80;;
49450;SDS011;35336;48.400;10.886;2023-08-06T01:39:45;2.00;;;1.80;;
49450;SDS011;35336;48.400;10.886;2023-08-06T01:40:00;3.03;;;1.88;;
49450;SDS011;35336;48.400;10.886;2023-08-06T01:40:15;2.80;;;1.77;;
49450;SDS011;35336;48.400;10.886;2023-08-06T01:40:31;2.00;;;1.80;;
49450;SDS011;35336;48.400;10.886;2023-08-06T01:40:46;3.05;;;1.85;;
49450;SDS011;35336;48.400;10.886;2023-08-06T01:41:01;3.50;;;2.00;;
49450;SDS011;35336;48.400;10.886;2023-08-06T01:41:17;2.60;;;1.97;;
49450;SDS011;35336;48.400;10.886;2023-08-06T01:41:32;2.55;;;1.90;;
49450;SDS011;35336;48.400;10.886;2023-08-06T01:41:52;2.78;;;2.08;;
49450;SDS011;35336;48.400;10.886;2023-08-06T01:42:11;2.55;;;2.10;;
49450;SDS011;35336;48.400;10.886;2023-08-06T01:42:28;2.63;;;1.95;;
49450;SDS011;35336;48.400;10.886;2023-08-06T01:42:44;2.83;;;1.70;;
49450;SDS011;35336;48.400;10.886;2023-08-06T01:42:59;2.70;;;1.90;;
49450;SDS011;35336;48.400;10.886;2023-08-06T01:43:17;2.20;;;2.00;;
49450;SDS011;35336;48.400;10.886;2023-08-06T01:43:34;4.82;;;2.05;;
49450;SDS011;35336;48.400;10.886;2023-08-06T01:43:50;6.72;;;1.95;;
49450;SDS011;35336;48.400;10.886;2023-08-06T01:44:07;4.45;;;1.90;;
49450;SDS011;35336;48.400;10.886;2023-08-06T01:44:22;3.33;;;1.70;;
49450;SDS011;35336;48.400;10.886;2023-08-06T01:44:40;4.15;;;1.80;;
49450;SDS011;35336;48.400;10.886;2023-08-06T01:44:58;3.88;;;1.73;;
49450;SDS011;35336;48.400;10.886;2023-08-06T01:45:18;2.65;;;1.75;;
49450;SDS011;35336;48.400;10.886;2023-08-06T01:45:37;3.53;;;2.10;;
49450;SDS011;35336;48.400;10.886;2023-08-06T01:45:52;3.60;;;2.10;;
49450;SDS011;35336;48.400;10.886;2023-08-06T01:46:09;3.00;;;1.90;;
49450;SDS011;35336;48.400;10.886;2023-08-06T01:46:25;2.47;;;1.90;;
49450;SDS011;35336;48.400;10.886;2023-08-06T01:46:40;2.58;;;2.03;;
49450;SDS011;35336;48.400;10.886;2023-08-06T01:46:55;4.50;;;2.10;;
49450;SDS011;35336;48.400;10.886;2023-08-06T01:47:11;4.33;;;2.00;;
49450;SDS011;35336;48.400;10.886;2023-08-06T01:47:26;3.38;;;1.73;;
49450;SDS011;35336;48.400;10.886;2023-08-06T01:47:42;5.97;;;1.93;;
49450;SDS011;35336;48.400;10.886;2023-08-06T01:47:57;5.13;;;2.00;;
49450;SDS011;35336;48.400;10.886;2023-08-06T01:48:12;3.17;;;1.90;;
49450;SDS011;35336;48.400;10.886;2023-08-06T01:48:28;4.13;;;2.00;;
49450;SDS011;35336;48.400;10.886;2023-08-06T01:48:48;3.95;;;1.90;;
49450;SDS011;35336;48.400;10.886;2023-08-06T01:49:03;2.58;;;1.70;;